La Luz, New Mexico
Current Conditions -  °F | °C
As of 10:55 PM on Friday 28 Nov 2014 (Local Time) from KALM Reporting Station
Clear Clear  
Wind Chill: 36°   Ceiling: Unl
Heat Index: 39°   Visibility: 10mi
Dew Point: 14°   Wind: 5mph
Humidity: 36%   Direction: 110°ESE
Pressure: 30.08"   Gusts: NA
Location:  32.98°N, 105.94°W
Report Text: KALM 290555Z AUTO 11004KT 10SM CLR 04/M10 A3008 RMK AO2
Loading
Personal Weather Stations






























Interactive Weather Map New forecast layout! Learn more

10-Day Weather Forecast

Advertisements
Track Severe Weather on mobile